Time;durP1;ratioP1;P1;durP2;ratioP2;P2;SDS_P1;SDS_P2;PMS_P1;PMS_P2;Temp;Humidity;BMP_temperature;BMP_pressure;BME280_temperature;BME280_humidity;BME280_pressure;Samples;Min_cycle;Max_cycle;Signal;HPM_P1;HPM_P2
2023/01/13 06:24:18;;;;;;;3.63;1.00;;;7.70;89.70;;;;;;5157085;27;20184;-77
2023/01/13 06:26:43;;;;;;;6.53;1.52;;;7.60;90.30;;;;;;5086016;28;20031;-80
2023/01/13 06:29:12;;;;;;;4.32;1.65;;;7.60;91.00;;;;;;5108209;28;20038;-78
2023/01/13 06:31:38;;;;;;;6.20;1.30;;;7.70;91.80;;;;;;5138454;28;20040;-78
2023/01/13 06:34:10;;;;;;;3.58;1.15;;;7.70;92.70;;;;;;5139294;28;20082;-78
2023/01/13 06:36:43;;;;;;;5.15;1.15;;;7.70;93.00;;;;;;5123163;28;20366;-78
2023/01/13 06:39:12;;;;;;;5.05;1.20;;;7.70;93.40;;;;;;5105699;28;20070;-80
2023/01/13 06:44:20;;;;;;;4.28;1.20;;;7.70;93.90;;;;;;5128340;28;20050;-78
2023/01/13 06:46:46;;;;;;;6.00;1.50;;;7.70;94.00;;;;;;5124689;28;20042;-79
2023/01/13 06:49:12;;;;;;;11.32;1.92;;;7.80;94.10;;;;;;5113100;28;20044;-79
2023/01/13 06:51:37;;;;;;;4.18;1.17;;;7.80;94.20;;;;;;5130403;28;20075;-79
2023/01/13 06:54:03;;;;;;;8.23;1.55;;;7.80;94.30;;;;;;5147412;28;20040;-79
2023/01/13 06:56:30;;;;;;;6.60;1.50;;;7.80;94.30;;;;;;5126322;28;20043;-79
2023/01/13 06:58:56;;;;;;;5.75;1.38;;;7.80;94.30;;;;;;5126024;28;20043;-78
2023/01/13 07:01:22;;;;;;;7.07;1.50;;;7.90;94.30;;;;;;5127490;28;20059;-78
2023/01/13 07:03:47;;;;;;;6.63;1.42;;;7.90;94.30;;;;;;5136084;28;20039;-78
2023/01/13 07:06:13;;;;;;;5.38;1.35;;;7.90;94.20;;;;;;5119710;28;20090;-79
2023/01/13 07:08:39;;;;;;;4.05;1.20;;;7.90;94.20;;;;;;5120877;28;20036;-79
2023/01/13 07:11:05;;;;;;;5.15;1.30;;;7.90;94.10;;;;;;5123063;28;20036;-79
2023/01/13 07:16:13;;;;;;;7.43;2.10;;;8.00;94.00;;;;;;5124398;28;20046;-78
2023/01/13 07:18:38;;;;;;;7.68;2.05;;;8.00;93.90;;;;;;5117823;28;20044;-78
2023/01/13 07:21:07;;;;;;;7.68;1.80;;;8.00;93.90;;;;;;5140018;28;20043;-79
2023/01/13 07:23:35;;;;;;;5.95;1.77;;;8.00;93.80;;;;;;5140788;28;20054;-78
2023/01/13 07:26:01;;;;;;;7.22;1.50;;;8.00;93.80;;;;;;5107118;28;20044;-77
2023/01/13 07:28:28;;;;;;;6.03;1.48;;;8.10;93.80;;;;;;5110197;28;20044;-78
2023/01/13 07:30:54;;;;;;;8.43;1.48;;;8.10;93.70;;;;;;5079761;28;20485;-78
2023/01/13 07:33:20;;;;;;;6.15;1.45;;;8.00;93.60;;;;;;5095367;28;20134;-79
2023/01/13 07:39:08;;;;;;;4.80;1.52;;;8.10;93.50;;;;;;5059839;28;20067;-78
2023/01/13 07:44:15;;;;;;;5.07;1.30;;;8.10;93.40;;;;;;5078828;28;20044;-77
2023/01/13 07:46:41;;;;;;;6.88;1.85;;;8.00;93.30;;;;;;5045226;28;20118;-78
2023/01/13 07:49:12;;;;;;;5.28;1.55;;;8.00;93.30;;;;;;5063154;28;20064;-77
2023/01/13 07:51:38;;;;;;;5.80;1.50;;;8.00;93.30;;;;;;5067638;28;20127;-77
2023/01/13 07:54:07;;;;;;;8.35;2.03;;;8.10;93.30;;;;;;5039141;28;20407;-77
2023/01/13 07:56:33;;;;;;;7.55;1.42;;;8.00;93.20;;;;;;5040581;28;20445;-75
2023/01/13 07:58:59;;;;;;;6.25;1.48;;;8.00;93.20;;;;;;5072083;28;20501;-77
2023/01/13 08:01:28;;;;;;;10.05;1.90;;;8.10;93.10;;;;;;5074352;28;20055;-78
2023/01/13 08:03:55;;;;;;;4.28;1.50;;;8.00;93.00;;;;;;5040016;28;20048;-77
2023/01/13 08:06:23;;;;;;;9.63;2.10;;;8.10;93.00;;;;;;5061224;28;20427;-77
2023/01/13 08:08:55;;;;;;;6.90;1.88;;;8.10;92.90;;;;;;5075159;28;20370;-79
2023/01/13 08:11:21;;;;;;;5.60;1.63;;;8.20;92.90;;;;;;5117844;28;20516;-79
2023/01/13 08:13:47;;;;;;;7.68;1.65;;;8.20;92.80;;;;;;5080788;28;20095;-77
2023/01/13 08:16:16;;;;;;;7.72;1.63;;;8.20;92.70;;;;;;5067572;28;20051;-79
2023/01/13 08:18:42;;;;;;;6.07;1.52;;;8.20;92.60;;;;;;5082948;28;20070;-77
2023/01/13 08:21:12;;;;;;;10.20;2.00;;;8.30;92.60;;;;;;5085644;28;20024;-77
2023/01/13 08:23:38;;;;;;;8.00;1.80;;;8.10;92.50;;;;;;5091144;28;20052;-77
2023/01/13 08:26:10;;;;;;;7.47;1.65;;;8.30;92.40;;;;;;5090030;28;20044;-81
2023/01/13 08:28:36;;;;;;;9.15;1.85;;;8.30;92.30;;;;;;5065953;28;20058;-78
2023/01/13 08:31:06;;;;;;;8.48;2.20;;;8.30;92.30;;;;;;5103645;28;20040;-79
2023/01/13 08:33:33;;;;;;;9.40;2.20;;;8.40;92.20;;;;;;5109662;28;20111;-78
2023/01/13 08:36:02;;;;;;;9.27;1.90;;;8.40;92.10;;;;;;5104393;28;20039;-78
2023/01/13 08:38:28;;;;;;;9.13;1.77;;;8.40;92.00;;;;;;5102392;28;20047;-79
2023/01/13 08:40:56;;;;;;;6.53;1.90;;;8.40;92.00;;;;;;5101909;28;20048;-79
2023/01/13 08:43:25;;;;;;;7.25;1.50;;;8.40;92.00;;;;;;5027015;28;20072;-80
2023/01/13 08:46:05;;;;;;;6.93;1.88;;;8.40;91.90;;;;;;5023223;28;20084;-77
2023/01/13 08:48:31;;;;;;;7.53;1.73;;;8.30;91.90;;;;;;5019335;28;20558;-79
2023/01/13 08:51:13;;;;;;;5.70;1.35;;;8.40;91.80;;;;;;5006215;28;20033;-80
2023/01/13 08:53:39;;;;;;;11.40;2.00;;;8.40;91.80;;;;;;4954037;28;20152;-79
2023/01/13 08:56:10;;;;;;;9.93;2.28;;;8.40;91.90;;;;;;4955667;28;20490;-77
2023/01/13 08:58:36;;;;;;;6.38;1.88;;;8.40;91.60;;;;;;4937917;29;20078;-77
2023/01/13 09:01:52;;;;;;;13.57;2.30;;;8.50;91.60;;;;;;4953201;28;20460;-78
2023/01/13 09:04:23;;;;;;;7.88;2.08;;;8.50;91.50;;;;;;4949632;28;20079;-79
2023/01/13 09:06:55;;;;;;;7.15;1.70;;;8.50;91.50;;;;;;4953977;28;20047;-79
2023/01/13 09:09:22;;;;;;;6.05;1.73;;;8.60;91.50;;;;;;4955042;28;20043;-83
2023/01/13 09:14:39;;;;;;;7.80;1.90;;;8.40;91.30;;;;;;5011184;28;20040;-80
2023/01/13 09:17:06;;;;;;;6.65;1.65;;;8.40;91.40;;;;;;5006352;28;20132;-78
2023/01/13 09:19:37;;;;;;;8.38;1.45;;;8.40;91.40;;;;;;5058600;28;20048;-77
2023/01/13 09:22:03;;;;;;;8.07;1.80;;;8.50;91.40;;;;;;5051422;28;20138;-77
2023/01/13 09:24:29;;;;;;;9.57;2.20;;;8.50;91.30;;;;;;5066791;28;20060;-77
2023/01/13 09:30:19;;;;;;;5.68;1.73;;;8.50;91.20;;;;;;4971766;28;20114;-81
2023/01/13 09:32:45;;;;;;;8.27;1.90;;;8.60;91.10;;;;;;4979663;28;20034;-77
2023/01/13 09:35:11;;;;;;;7.97;1.98;;;8.70;91.00;;;;;;4974134;28;20053;-77
2023/01/13 09:37:38;;;;;;;9.23;2.13;;;8.70;90.90;;;;;;4971807;28;20051;-78
2023/01/13 09:40:10;;;;;;;7.88;2.28;;;8.70;90.80;;;;;;4958935;28;20047;-76
2023/01/13 09:45:58;;;;;;;8.40;2.60;;;8.80;90.70;;;;;;4974201;28;19921;-78
2023/01/13 09:48:29;;;;;;;8.82;1.90;;;8.70;90.70;;;;;;5012903;28;20101;-77
2023/01/13 09:51:19;;;;;;;11.65;2.40;;;8.70;90.70;;;;;;4955991;28;20113;-76
2023/01/13 09:54:05;;;;;;;10.98;2.53;;;8.80;90.60;;;;;;4971910;28;20512;-78
2023/01/13 09:56:34;;;;;;;9.93;2.45;;;8.70;90.60;;;;;;4993084;28;20038;-77
2023/01/13 09:59:03;;;;;;;9.80;2.30;;;8.60;90.60;;;;;;4979157;28;20048;-79
2023/01/13 10:01:40;;;;;;;12.82;3.13;;;8.50;90.60;;;;;;4978649;28;20049;-77
2023/01/13 10:04:14;;;;;;;7.78;2.10;;;8.50;90.70;;;;;;5013465;28;20453;-78
2023/01/13 10:06:43;;;;;;;8.45;1.80;;;8.40;90.70;;;;;;5018229;28;20466;-79
2023/01/13 10:09:16;;;;;;;8.70;2.10;;;8.40;90.80;;;;;;5015843;28;20136;-79
2023/01/13 10:14:44;;;;;;;5.55;1.80;;;8.40;90.90;;;;;;5033175;28;20141;-82
2023/01/13 10:21:09;;;;;;;9.40;2.30;;;8.20;91.10;;;;;;5017591;28;20065;-84
2023/01/13 10:23:56;;;;;;;7.63;1.77;;;8.20;91.10;;;;;;5011448;28;20077;-81
2023/01/13 10:26:40;;;;;;;9.95;2.15;;;8.20;91.10;;;;;;4994745;28;20052;-79
2023/01/13 10:29:23;;;;;;;9.30;2.60;;;8.10;91.20;;;;;;5014520;28;20484;-80
2023/01/13 10:35:55;;;;;;;10.50;1.95;;;8.20;91.20;;;;;;4895465;29;20037;-80
2023/01/13 10:38:29;;;;;;;10.90;2.13;;;8.20;91.20;;;;;;4909977;29;20119;-77
2023/01/13 10:41:57;;;;;;;7.07;2.17;;;8.20;91.20;;;;;;4901356;29;20048;-80
2023/01/13 10:44:50;;;;;;;8.32;2.30;;;8.20;91.20;;;;;;4885346;29;20168;-76
2023/01/13 10:47:29;;;;;;;6.78;1.55;;;8.30;91.20;;;;;;4896285;29;20087;-77
2023/01/13 10:50:20;;;;;;;9.75;2.40;;;8.30;91.20;;;;;;4897377;29;20040;-78
2023/01/13 10:53:01;;;;;;;8.50;2.03;;;8.50;91.20;;;;;;4899317;29;20055;-78
2023/01/13 10:56:03;;;;;;;7.18;2.05;;;8.40;91.20;;;;;;4951425;29;20039;-83
2023/01/13 10:58:29;;;;;;;10.05;2.30;;;8.40;91.10;;;;;;4895325;29;20491;-76
2023/01/13 11:01:05;;;;;;;8.60;2.40;;;8.50;91.10;;;;;;4928406;29;20039;-77
2023/01/13 11:03:49;;;;;;;8.07;2.30;;;8.40;91.00;;;;;;4900618;29;20086;-78
2023/01/13 11:06:32;;;;;;;13.75;2.72;;;8.40;91.00;;;;;;4956148;28;20117;-79
2023/01/13 11:09:03;;;;;;;7.95;2.20;;;8.40;91.00;;;;;;4991801;28;20038;-78
2023/01/13 11:11:40;;;;;;;8.27;2.23;;;8.60;91.00;;;;;;4974883;28;20046;-78
2023/01/13 11:14:39;;;;;;;9.38;1.80;;;8.60;91.00;;;;;;4959841;28;20808;-75
2023/01/13 11:17:40;;;;;;;7.38;2.05;;;8.60;91.00;;;;;;4915803;29;20143;-79
2023/01/13 11:20:53;;;;;;;7.03;1.95;;;8.60;90.90;;;;;;4890308;29;20048;-77
2023/01/13 11:23:30;;;;;;;8.07;2.08;;;8.70;91.00;;;;;;4862777;29;20048;-78
2023/01/13 11:26:03;;;;;;;8.30;2.15;;;8.70;91.30;;;;;;4864126;29;20049;-77
2023/01/13 11:28:54;;;;;;;9.63;2.55;;;8.60;91.00;;;;;;4876627;29;20040;-78
2023/01/13 11:31:32;;;;;;;8.57;2.15;;;8.60;91.00;;;;;;4923920;29;20043;-77
2023/01/13 11:34:06;;;;;;;6.90;1.50;;;8.70;91.00;;;;;;4900610;29;20040;-78
2023/01/13 11:36:57;;;;;;;5.70;1.70;;;8.80;91.00;;;;;;4908299;28;20098;-78
2023/01/13 11:39:34;;;;;;;;;;;8.80;91.00;;;;;;4958217;28;20038;-80
2023/01/13 11:52:27;;;;;;;8.48;1.95;;;8.90;90.90;;;;;;4951021;29;20051;-79
2023/01/13 11:59:26;;;;;;;6.15;1.90;;;9.00;90.80;;;;;;4909047;28;20078;-79
2023/01/13 12:02:21;;;;;;;5.05;1.60;;;8.90;90.80;;;;;;4934418;29;20127;-77
2023/01/13 12:05:28;;;;;;;8.50;2.13;;;8.80;90.80;;;;;;4913080;29;20036;-78
2023/01/13 12:08:26;;;;;;;7.43;1.75;;;8.80;90.90;;;;;;4903163;29;20069;-78
2023/01/13 12:11:28;;;;;;;7.47;1.60;;;8.70;91.00;;;;;;4918092;29;20044;-78
2023/01/13 12:14:18;;;;;;;7.47;1.52;;;8.70;91.00;;;;;;4930791;29;20089;-79
2023/01/13 12:16:53;;;;;;;5.93;1.75;;;8.70;91.10;;;;;;4914633;29;20052;-79
2023/01/13 12:19:26;;;;;;;4.45;1.52;;;8.70;91.20;;;;;;4925928;29;20044;-78
2023/01/13 12:22:17;;;;;;;4.28;1.20;;;8.70;91.20;;;;;;4955202;28;20112;-79
2023/01/13 12:24:51;;;;;;;5.15;1.65;;;8.60;91.10;;;;;;4992953;28;20055;-79
2023/01/13 12:30:45;;;;;;;7.53;1.70;;;8.80;91.10;;;;;;4964755;28;20104;-79
2023/01/13 12:33:35;;;;;;;10.13;1.80;;;8.90;91.10;;;;;;4974844;28;20083;-78
2023/01/13 12:36:16;;;;;;;7.47;1.83;;;8.90;91.00;;;;;;4978251;28;20088;-79
2023/01/13 12:38:48;;;;;;;5.32;1.52;;;8.90;91.00;;;;;;4992961;28;20042;-78
2023/01/13 12:41:32;;;;;;;10.50;2.05;;;9.10;91.00;;;;;;5002632;28;20520;-78
2023/01/13 12:46:49;;;;;;;8.73;1.90;;;9.10;90.60;;;;;;5002643;28;20116;-78
2023/01/13 12:49:28;;;;;;;5.43;1.63;;;9.10;90.90;;;;;;5009252;28;20042;-78
2023/01/13 12:52:14;;;;;;;7.15;1.52;;;8.90;90.70;;;;;;5001439;28;20053;-78
2023/01/13 12:55:01;;;;;;;5.65;1.50;;;8.80;90.90;;;;;;4950597;28;20097;-78
2023/01/13 12:57:31;;;;;;;3.97;1.35;;;8.80;91.00;;;;;;5023652;28;20490;-78
2023/01/13 13:00:17;;;;;;;5.80;1.73;;;8.70;91.10;;;;;;5025676;28;20560;-78
2023/01/13 13:03:19;;;;;;;5.13;1.35;;;8.70;91.30;;;;;;5083619;28;20046;-77
2023/01/13 13:06:39;;;;;;;7.07;1.55;;;8.70;91.30;;;;;;5095411;28;20047;-79
2023/01/13 13:09:19;;;;;;;7.20;2.10;;;8.70;91.60;;;;;;5015710;28;20096;-77
2023/01/13 13:15:06;;;;;;;6.18;1.63;;;8.70;91.20;;;;;;5029712;28;20415;-77
2023/01/13 13:17:46;;;;;;;6.68;1.60;;;8.70;91.10;;;;;;5032328;28;20514;-79
2023/01/13 13:20:45;;;;;;;5.28;1.63;;;8.70;91.10;;;;;;4996215;28;20474;-78
2023/01/13 13:23:43;;;;;;;8.65;1.65;;;8.80;91.10;;;;;;4994466;28;20076;-78
2023/01/13 13:26:29;;;;;;;7.15;2.03;;;8.90;91.00;;;;;;5011440;28;20096;-77
2023/01/13 13:29:33;;;;;;;5.55;1.40;;;8.90;90.90;;;;;;4994288;28;20038;-77
2023/01/13 13:32:22;;;;;;;5.63;1.70;;;8.90;90.90;;;;;;5010502;28;20579;-77
2023/01/13 13:35:18;;;;;;;5.90;1.48;;;8.90;90.90;;;;;;5011378;28;20065;-77
2023/01/13 13:49:01;;;;;;;6.07;1.40;;;9.00;90.60;;;;;;5090613;28;20076;-77
2023/01/13 13:51:36;;;;;;;7.30;1.60;;;9.00;90.50;;;;;;5071613;28;20051;-76
2023/01/13 13:54:03;;;;;;;6.78;1.45;;;9.00;90.50;;;;;;5094623;28;20442;-77
2023/01/13 13:56:34;;;;;;;8.15;1.95;;;9.00;90.40;;;;;;5062981;28;20500;-76
2023/01/13 13:59:00;;;;;;;5.53;1.95;;;9.10;90.50;;;;;;5071710;28;20058;-75
2023/01/13 14:01:35;;;;;;;5.15;1.52;;;9.10;90.40;;;;;;5096419;28;20031;-76
2023/01/13 14:04:10;;;;;;;5.78;1.77;;;9.10;90.40;;;;;;5085128;28;20039;-76
2023/01/13 14:06:36;;;;;;;7.65;1.70;;;9.10;90.30;;;;;;5087594;28;20039;-75
2023/01/13 14:09:05;;;;;;;5.22;1.73;;;9.20;90.30;;;;;;5105734;28;20050;-76
2023/01/13 14:11:32;;;;;;;6.70;1.60;;;9.20;90.30;;;;;;5081299;28;20075;-76
2023/01/13 14:14:12;;;;;;;6.80;1.40;;;9.10;90.20;;;;;;5078852;28;20047;-75
2023/01/13 14:16:39;;;;;;;5.18;1.23;;;9.10;90.20;;;;;;5079446;28;20446;-76
2023/01/13 14:19:21;;;;;;;6.15;1.27;;;9.20;90.20;;;;;;5079544;28;20032;-76
2023/01/13 14:21:47;;;;;;;;;;;9.10;90.20;;;;;;5103026;28;20378;-79
2023/01/13 14:24:16;;;;;;;8.23;2.00;;;9.20;90.20;;;;;;5089085;28;19964;-78
2023/01/13 14:26:50;;;;;;;6.53;1.48;;;9.20;90.20;;;;;;5097413;28;20051;-77
2023/01/13 14:29:20;;;;;;;5.18;1.40;;;9.20;90.10;;;;;;5075128;28;20071;-80
2023/01/13 14:31:48;;;;;;;5.03;1.60;;;9.20;90.10;;;;;;5080406;28;20048;-78
2023/01/13 14:34:14;;;;;;;6.78;1.58;;;9.10;90.10;;;;;;5097864;28;20103;-77
2023/01/13 14:36:40;;;;;;;7.10;1.60;;;9.20;90.10;;;;;;5114970;28;20067;-76
2023/01/13 14:39:35;;;;;;;7.50;1.95;;;9.10;90.10;;;;;;5064947;28;20061;-77
2023/01/13 14:42:01;;;;;;;5.97;1.70;;;9.10;90.10;;;;;;5072401;28;20044;-78
2023/01/13 14:44:29;;;;;;;8.23;1.85;;;9.10;90.00;;;;;;5109734;28;20143;-77
2023/01/13 14:46:58;;;;;;;6.25;1.42;;;9.20;90.00;;;;;;5084382;28;20067;-78
2023/01/13 14:49:36;;;;;;;3.95;1.45;;;9.10;90.00;;;;;;5064667;28;20032;-77
2023/01/13 14:52:06;;;;;;;4.05;1.30;;;9.10;90.00;;;;;;5083108;28;20035;-77
2023/01/13 14:54:44;;;;;;;3.17;1.23;;;9.00;90.00;;;;;;5099230;28;20043;-78
2023/01/13 14:57:26;;;;;;;3.40;1.35;;;9.10;90.10;;;;;;5081167;28;20047;-75
2023/01/13 15:00:03;;;;;;;;;;;9.10;90.10;;;;;;5098448;28;20043;-76
2023/01/13 15:02:38;;;;;;;3.30;1.10;;;9.10;90.10;;;;;;5097794;28;19918;-79
2023/01/13 15:05:37;;;;;;;7.38;1.48;;;9.00;90.00;;;;;;5096270;28;20036;-78
2023/01/13 15:08:26;;;;;;;4.25;1.27;;;9.10;90.00;;;;;;5085451;28;20040;-78
2023/01/13 15:10:58;;;;;;;5.90;1.55;;;9.00;90.00;;;;;;5089280;28;20039;-76
2023/01/13 15:13:34;;;;;;;8.15;1.58;;;9.10;90.00;;;;;;5105008;28;20523;-77
2023/01/13 15:16:03;;;;;;;5.65;1.45;;;9.20;90.00;;;;;;5084304;28;20055;-76
2023/01/13 15:18:30;;;;;;;5.93;1.35;;;9.10;90.00;;;;;;5102108;28;20066;-77
2023/01/13 15:20:56;;;;;;;7.43;1.45;;;9.10;90.00;;;;;;5101892;28;20044;-76
2023/01/13 15:23:22;;;;;;;6.88;1.88;;;9.10;90.00;;;;;;5119111;28;20057;-77
2023/01/13 15:25:48;;;;;;;7.10;1.77;;;9.10;90.00;;;;;;5105988;28;20087;-77
2023/01/13 15:28:19;;;;;;;3.72;1.30;;;9.10;89.90;;;;;;5093195;28;20066;-79
2023/01/13 15:30:45;;;;;;;;;;;9.10;89.80;;;;;;5047604;28;20049;-78
2023/01/13 15:33:13;;;;;;;7.28;1.80;;;9.10;89.70;;;;;;5054443;28;19921;-74
2023/01/13 15:35:42;;;;;;;8.95;2.05;;;9.10;89.60;;;;;;5061717;28;20041;-76
2023/01/13 15:38:11;;;;;;;4.72;1.50;;;9.20;89.50;;;;;;5048035;28;20060;-77
2023/01/13 15:40:37;;;;;;;5.78;1.77;;;9.10;89.40;;;;;;5057255;28;20498;-79
2023/01/13 15:48:23;;;;;;;4.88;1.50;;;9.10;89.20;;;;;;5057207;28;20048;-76
2023/01/13 15:50:49;;;;;;;3.95;1.35;;;9.10;89.20;;;;;;5036794;28;20044;-77
2023/01/13 15:53:15;;;;;;;4.20;1.23;;;9.10;89.20;;;;;;5054411;28;20423;-76
2023/01/13 15:55:43;;;;;;;3.58;1.23;;;9.10;89.20;;;;;;5023559;28;20049;-76
2023/01/13 15:58:12;;;;;;;6.65;1.80;;;9.00;89.20;;;;;;5022415;28;20130;-76
2023/01/13 16:00:39;;;;;;;3.38;1.30;;;9.00;89.30;;;;;;5037577;28;20145;-75
2023/01/13 16:03:04;;;;;;;5.78;1.58;;;9.00;89.20;;;;;;5054863;28;20106;-76
2023/01/13 16:05:30;;;;;;;5.20;1.42;;;9.00;89.20;;;;;;5019020;28;20041;-76
2023/01/13 16:07:56;;;;;;;8.73;1.73;;;9.00;89.20;;;;;;5073075;28;20381;-75
2023/01/13 16:10:26;;;;;;;7.50;1.75;;;9.00;89.90;;;;;;5115456;28;20492;-76
2023/01/13 16:12:54;;;;;;;6.95;1.90;;;9.00;89.30;;;;;;5117107;28;20093;-76
2023/01/13 16:15:23;;;;;;;5.95;1.60;;;8.90;89.10;;;;;;5084085;28;20374;-78
2023/01/13 16:17:54;;;;;;;6.07;1.48;;;8.90;89.10;;;;;;5084352;28;20126;-75
2023/01/13 16:20:20;;;;;;;5.95;1.85;;;8.90;89.10;;;;;;5095983;28;20423;-76
2023/01/13 16:22:46;;;;;;;6.97;2.00;;;8.90;89.10;;;;;;5063409;28;20040;-75
2023/01/13 16:25:19;;;;;;;6.63;1.50;;;8.90;89.10;;;;;;5115232;28;20092;-75
2023/01/13 16:27:45;;;;;;;6.63;1.65;;;8.80;89.10;;;;;;5114663;28;20047;-75
2023/01/13 16:30:28;;;;;;;4.85;1.35;;;8.80;89.10;;;;;;5079112;28;20040;-75
2023/01/13 16:32:55;;;;;;;5.20;1.55;;;8.80;89.20;;;;;;5096464;28;20032;-76
2023/01/13 16:35:22;;;;;;;7.45;1.70;;;8.80;89.10;;;;;;5096088;28;20031;-75
2023/01/13 16:38:14;;;;;;;7.13;1.67;;;8.90;89.00;;;;;;5115910;28;20393;-79
2023/01/13 16:40:39;;;;;;;6.78;1.67;;;8.90;88.90;;;;;;5022053;28;20044;-76
2023/01/13 16:43:05;;;;;;;8.05;1.85;;;8.90;88.70;;;;;;5044136;28;20095;-78
2023/01/13 16:45:34;;;;;;;6.45;1.65;;;8.90;88.70;;;;;;5039545;28;20068;-76
2023/01/13 16:48:00;;;;;;;7.32;1.80;;;8.90;88.80;;;;;;5041481;28;20115;-78
2023/01/13 16:50:35;;;;;;;5.95;1.38;;;8.80;88.70;;;;;;5036174;28;20089;-79
2023/01/13 16:53:03;;;;;;;5.15;1.67;;;9.00;88.90;;;;;;5035545;28;20037;-78
2023/01/13 16:55:49;;;;;;;7.13;1.90;;;8.90;88.70;;;;;;5020130;28;20037;-75
2023/01/13 16:58:18;;;;;;;4.53;1.40;;;8.90;88.60;;;;;;5053997;28;20554;-75
2023/01/13 17:00:45;;;;;;;6.28;1.67;;;8.90;88.50;;;;;;5035748;28;20045;-76
2023/01/13 17:03:12;;;;;;;2.78;1.20;;;8.90;88.50;;;;;;5019951;28;20099;-78
2023/01/13 17:05:40;;;;;;;5.05;1.88;;;8.90;88.50;;;;;;5090035;28;20043;-76
2023/01/13 17:08:06;;;;;;;4.40;1.40;;;8.90;88.60;;;;;;5040965;28;20480;-77
2023/01/13 17:10:31;;;;;;;3.88;1.40;;;8.80;88.60;;;;;;5051711;28;20085;-80
2023/01/13 17:12:57;;;;;;;4.65;1.50;;;8.90;88.70;;;;;;5035629;28;20360;-77
2023/01/13 17:15:23;;;;;;;5.00;1.30;;;8.80;88.70;;;;;;5038550;28;20044;-77
2023/01/13 17:17:50;;;;;;;6.30;1.40;;;8.80;88.60;;;;;;5040200;28;20045;-77
2023/01/13 17:20:17;;;;;;;6.32;1.63;;;8.70;88.50;;;;;;5056060;28;20104;-77
2023/01/13 17:22:43;;;;;;;4.57;1.40;;;8.80;88.50;;;;;;5055366;28;20056;-77
2023/01/13 17:25:12;;;;;;;5.65;1.60;;;8.80;88.50;;;;;;5024162;28;20137;-77
2023/01/13 17:27:38;;;;;;;5.72;1.42;;;8.80;88.60;;;;;;5023689;28;20047;-77
2023/01/13 17:30:04;;;;;;;4.35;1.38;;;8.70;88.60;;;;;;5054916;28;20040;-77
2023/01/13 17:32:30;;;;;;;4.57;1.30;;;8.70;88.60;;;;;;5037941;28;20041;-78
2023/01/13 17:34:56;;;;;;;6.20;1.23;;;8.70;88.60;;;;;;5054955;28;20040;-77
2023/01/13 17:37:21;;;;;;;6.47;1.63;;;8.70;88.70;;;;;;5004328;28;20128;-77
2023/01/13 17:39:49;;;;;;;4.13;1.15;;;8.70;88.70;;;;;;5085276;28;20131;-77
2023/01/13 17:42:15;;;;;;;5.93;1.45;;;8.70;88.60;;;;;;5101212;28;20047;-78
2023/01/13 17:44:41;;;;;;;5.97;1.50;;;8.80;88.70;;;;;;5116134;28;20044;-77
2023/01/13 17:47:07;;;;;;;4.97;1.30;;;8.80;88.50;;;;;;5078667;28;20054;-77
2023/01/13 17:49:33;;;;;;;5.13;0.95;;;8.80;88.40;;;;;;5078132;28;20389;-76
2023/01/13 17:51:58;;;;;;;3.55;0.93;;;8.80;88.40;;;;;;5095039;28;20040;-76
2023/01/13 17:54:24;;;;;;;2.70;0.90;;;8.80;88.30;;;;;;5094856;28;20054;-76
2023/01/13 17:56:50;;;;;;;1.80;0.68;;;8.90;88.40;;;;;;5094911;28;20048;-76
2023/01/13 17:59:18;;;;;;;1.23;0.73;;;8.90;88.40;;;;;;5094705;28;20050;-77
2023/01/13 18:01:45;;;;;;;2.35;0.50;;;8.80;88.40;;;;;;5095528;28;20051;-78
2023/01/13 18:04:16;;;;;;;1.92;0.80;;;8.80;88.50;;;;;;5094693;28;20048;-77
2023/01/13 18:06:42;;;;;;;0.95;0.68;;;8.70;88.70;;;;;;5113043;28;20051;-77
2023/01/13 18:09:08;;;;;;;2.50;0.90;;;8.70;88.80;;;;;;5077602;28;20114;-78
2023/01/13 18:11:34;;;;;;;2.25;0.63;;;8.60;88.70;;;;;;5113399;28;20044;-78
2023/01/13 18:14:00;;;;;;;1.67;0.50;;;8.40;88.40;;;;;;5096130;28;20461;-79
2023/01/13 18:16:27;;;;;;;1.10;0.43;;;8.00;88.70;;;;;;5080041;28;20039;-80
2023/01/13 18:27:17;;;;;;;0.77;0.35;;;7.70;89.60;;;;;;5080066;28;20447;-79
2023/01/13 18:29:41;;;;;;;0.90;0.38;;;7.00;90.80;;;;;;5096715;28;20047;-78
2023/01/13 18:32:07;;;;;;;0.32;0.32;;;6.90;90.80;;;;;;5081775;28;20042;-78
2023/01/13 18:34:34;;;;;;;0.88;0.30;;;6.90;90.80;;;;;;5084272;28;20043;-77
2023/01/13 18:37:00;;;;;;;0.38;0.25;;;6.90;90.90;;;;;;5065047;28;20439;-76
2023/01/13 18:39:26;;;;;;;3.03;0.57;;;7.00;90.80;;;;;;5106129;28;20126;-76
2023/01/13 18:44:31;;;;;;;0.95;0.50;;;7.00;90.80;;;;;;5106924;28;20558;-78
2023/01/13 18:46:57;;;;;;;1.48;0.73;;;7.10;90.80;;;;;;5101645;28;20032;-77
2023/01/13 18:49:23;;;;;;;2.50;0.77;;;7.20;90.70;;;;;;5088460;28;20085;-77
2023/01/13 18:51:52;;;;;;;1.90;0.90;;;7.30;90.60;;;;;;5072799;28;20047;-79
2023/01/13 18:54:18;;;;;;;4.47;1.00;;;7.30;90.60;;;;;;5087989;28;20048;-77
2023/01/13 18:56:44;;;;;;;3.17;0.98;;;7.40;90.50;;;;;;5104804;28;20046;-79
2023/01/13 18:59:10;;;;;;;3.65;1.00;;;7.40;90.50;;;;;;5081368;28;20047;-77
2023/01/13 19:01:39;;;;;;;2.30;1.13;;;7.50;90.40;;;;;;5123225;28;20038;-76
2023/01/13 19:04:09;;;;;;;1.55;0.80;;;7.60;90.40;;;;;;5090284;28;20079;-77
2023/01/13 19:06:35;;;;;;;3.63;1.10;;;7.60;90.30;;;;;;5079518;28;20035;-75
2023/01/13 19:09:07;;;;;;;2.97;1.13;;;7.60;90.30;;;;;;5095140;28;20114;-77
2023/01/13 19:11:33;;;;;;;2.90;1.05;;;7.70;90.60;;;;;;5094432;28;20047;-76
2023/01/13 19:13:59;;;;;;;2.42;0.90;;;7.70;90.30;;;;;;5061776;28;20096;-75
2023/01/13 19:16:24;;;;;;;2.00;0.82;;;7.70;90.30;;;;;;5061209;28;20043;-75
2023/01/13 19:18:50;;;;;;;1.88;0.88;;;7.60;90.30;;;;;;5095120;28;20047;-76
2023/01/13 19:21:16;;;;;;;2.35;0.70;;;7.50;90.40;;;;;;5078140;28;20055;-75
2023/01/13 19:23:42;;;;;;;1.15;0.57;;;7.50;90.50;;;;;;5094128;28;20051;-75
2023/01/13 19:26:09;;;;;;;0.65;0.50;;;7.40;90.50;;;;;;5112927;28;20089;-75
2023/01/13 19:28:38;;;;;;;2.78;0.70;;;7.40;90.60;;;;;;5094003;28;20042;-76
2023/01/13 19:31:07;;;;;;;1.92;0.57;;;7.30;90.70;;;;;;5096095;28;20435;-76
2023/01/13 19:33:34;;;;;;;0.80;0.63;;;7.30;90.80;;;;;;5097590;28;20397;-75
2023/01/13 19:36:00;;;;;;;2.22;0.85;;;7.30;90.80;;;;;;5116589;28;20056;-75
2023/01/13 19:38:26;;;;;;;2.83;0.60;;;7.30;90.90;;;;;;5115332;28;20067;-75
2023/01/13 19:40:57;;;;;;;1.40;0.55;;;7.30;90.90;;;;;;5097048;28;20489;-75
2023/01/13 19:46:06;;;;;;;1.50;0.65;;;7.30;90.80;;;;;;5082541;28;20089;-75
2023/01/13 19:48:32;;;;;;;1.38;0.50;;;7.30;90.80;;;;;;5119746;28;20044;-75
2023/01/13 19:50:59;;;;;;;1.10;0.50;;;7.20;90.80;;;;;;5064077;28;20138;-76
2023/01/13 19:53:25;;;;;;;1.38;0.60;;;7.30;90.90;;;;;;5097669;28;20048;-77
2023/01/13 19:55:51;;;;;;;1.30;0.60;;;7.20;90.90;;;;;;5097794;28;20566;-75
2023/01/13 19:58:18;;;;;;;0.60;0.50;;;7.20;90.90;;;;;;5080361;28;20055;-76
2023/01/13 20:00:47;;;;;;;1.17;0.60;;;7.20;90.90;;;;;;5070306;28;20088;-76
2023/01/13 20:03:14;;;;;;;1.95;0.50;;;7.20;90.90;;;;;;5073398;28;20074;-76
2023/01/13 20:05:40;;;;;;;1.13;0.50;;;7.20;90.90;;;;;;5104202;28;20051;-76
2023/01/13 20:08:06;;;;;;;0.70;0.40;;;7.10;90.90;;;;;;5085977;28;20044;-76
2023/01/13 20:10:32;;;;;;;0.93;0.50;;;7.20;91.00;;;;;;5125700;28;20063;-77
2023/01/13 20:12:58;;;;;;;2.53;0.68;;;7.20;91.00;;;;;;5108478;28;20104;-76
2023/01/13 20:15:23;;;;;;;1.05;0.70;;;7.20;91.00;;;;;;5110688;28;20050;-76
2023/01/13 20:17:49;;;;;;;1.70;0.77;;;7.30;91.00;;;;;;5109031;28;20101;-76
2023/01/13 20:20:15;;;;;;;2.38;0.80;;;7.30;91.00;;;;;;5089570;28;20507;-76
2023/01/13 20:22:41;;;;;;;3.28;0.75;;;7.40;90.90;;;;;;5125469;28;20463;-75
2023/01/13 20:25:07;;;;;;;2.40;0.50;;;7.40;90.90;;;;;;5123881;28;20047;-76
2023/01/13 20:27:33;;;;;;;0.95;0.52;;;7.40;90.90;;;;;;5125166;28;20035;-75
2023/01/13 20:29:59;;;;;;;1.48;0.60;;;7.40;90.90;;;;;;5125181;28;20062;-76
2023/01/13 20:32:25;;;;;;;1.58;0.60;;;7.50;90.90;;;;;;5099554;28;20035;-75
2023/01/13 20:34:50;;;;;;;0.93;0.60;;;7.50;90.90;;;;;;5114890;28;20096;-75
2023/01/13 20:37:16;;;;;;;1.60;0.57;;;7.50;90.90;;;;;;5064435;28;20065;-75
2023/01/13 20:39:44;;;;;;;1.27;0.43;;;7.50;90.90;;;;;;5091434;28;20111;-77
2023/01/13 20:44:51;;;;;;;2.33;0.70;;;7.50;91.00;;;;;;5091407;28;20055;-77
2023/01/13 20:47:20;;;;;;;1.35;0.68;;;7.50;91.00;;;;;;5086548;28;20103;-76
2023/01/13 20:49:46;;;;;;;0.82;0.43;;;7.60;91.00;;;;;;5084667;28;20039;-76
2023/01/13 20:52:13;;;;;;;2.05;0.73;;;7.60;91.10;;;;;;5108104;28;20173;-77
2023/01/13 20:54:42;;;;;;;1.67;0.47;;;7.60;91.10;;;;;;5103980;28;20055;-76
2023/01/13 20:57:10;;;;;;;2.22;0.73;;;7.70;91.10;;;;;;5083158;28;20050;-77
2023/01/13 20:59:37;;;;;;;1.25;0.52;;;7.70;91.00;;;;;;5067226;28;20107;-76
2023/01/13 21:02:05;;;;;;;2.40;0.63;;;7.70;91.00;;;;;;5038164;28;20037;-77
2023/01/13 21:04:30;;;;;;;1.13;0.55;;;7.70;91.00;;;;;;5032960;28;20053;-77
2023/01/13 21:06:56;;;;;;;0.60;0.32;;;7.70;91.00;;;;;;5020411;28;20618;-75
2023/01/13 21:09:25;;;;;;;0.85;0.60;;;7.70;91.10;;;;;;5019530;28;20048;-75
2023/01/13 21:19:55;;;;;;;3.28;1.00;;;7.70;91.20;;;;;;5044795;28;20072;-77
2023/01/13 21:22:21;;;;;;;2.55;0.90;;;7.80;91.20;;;;;;5012920;28;20079;-76